sensor_id;sensor_type;location;lat;lon;timestamp;P1;durP1;ratioP1;P2;durP2;ratioP2
1991;SDS011;997;48.448;8.924;2023-02-22T04:01:57;6.90;;;6.30;;
1991;SDS011;997;48.448;8.924;2023-02-22T04:04:23;6.43;;;5.83;;
1991;SDS011;997;48.448;8.924;2023-02-22T04:06:49;7.20;;;5.20;;
1991;SDS011;997;48.448;8.924;2023-02-22T04:09:16;7.27;;;6.43;;
1991;SDS011;997;48.448;8.924;2023-02-22T04:11:42;8.30;;;6.97;;
1991;SDS011;997;48.448;8.924;2023-02-22T04:14:08;6.43;;;5.83;;
1991;SDS011;997;48.448;8.924;2023-02-22T04:16:34;6.67;;;5.87;;
1991;SDS011;997;48.448;8.924;2023-02-22T04:19:00;6.20;;;5.33;;
1991;SDS011;997;48.448;8.924;2023-02-22T04:21:25;7.73;;;5.83;;
1991;SDS011;997;48.448;8.924;2023-02-22T04:23:51;6.27;;;5.67;;
1991;SDS011;997;48.448;8.924;2023-02-22T04:26:17;7.30;;;6.67;;
1991;SDS011;997;48.448;8.924;2023-02-22T04:28:42;8.10;;;7.00;;
1991;SDS011;997;48.448;8.924;2023-02-22T04:31:08;8.23;;;7.43;;
1991;SDS011;997;48.448;8.924;2023-02-22T04:33:34;8.40;;;6.63;;
1991;SDS011;997;48.448;8.924;2023-02-22T04:35:59;6.20;;;5.27;;
1991;SDS011;997;48.448;8.924;2023-02-22T04:38:25;7.20;;;6.50;;
1991;SDS011;997;48.448;8.924;2023-02-22T04:40:51;7.07;;;6.37;;
1991;SDS011;997;48.448;8.924;2023-02-22T04:43:18;6.83;;;5.83;;
1991;SDS011;997;48.448;8.924;2023-02-22T04:45:44;7.43;;;5.80;;
1991;SDS011;997;48.448;8.924;2023-02-22T04:48:10;6.13;;;5.63;;
1991;SDS011;997;48.448;8.924;2023-02-22T04:50:36;8.10;;;6.00;;
1991;SDS011;997;48.448;8.924;2023-02-22T04:53:02;6.63;;;5.90;;
1991;SDS011;997;48.448;8.924;2023-02-22T04:55:27;6.20;;;5.60;;
1991;SDS011;997;48.448;8.924;2023-02-22T04:57:54;7.87;;;6.40;;
1991;SDS011;997;48.448;8.924;2023-02-22T05:00:20;7.90;;;7.10;;
1991;SDS011;997;48.448;8.924;2023-02-22T05:02:47;9.83;;;8.00;;
1991;SDS011;997;48.448;8.924;2023-02-22T05:05:14;7.53;;;6.87;;
1991;SDS011;997;48.448;8.924;2023-02-22T05:07:40;7.27;;;6.67;;
1991;SDS011;997;48.448;8.924;2023-02-22T05:10:07;9.50;;;6.23;;
1991;SDS011;997;48.448;8.924;2023-02-22T05:12:33;6.97;;;5.53;;
1991;SDS011;997;48.448;8.924;2023-02-22T05:15:00;6.17;;;5.67;;
1991;SDS011;997;48.448;8.924;2023-02-22T05:17:25;6.80;;;6.20;;
1991;SDS011;997;48.448;8.924;2023-02-22T05:19:51;7.43;;;6.60;;
1991;SDS011;997;48.448;8.924;2023-02-22T05:22:17;5.60;;;4.63;;
1991;SDS011;997;48.448;8.924;2023-02-22T05:24:43;8.30;;;7.37;;
1991;SDS011;997;48.448;8.924;2023-02-22T05:27:08;6.70;;;6.10;;
1991;SDS011;997;48.448;8.924;2023-02-22T05:29:34;9.37;;;6.83;;
1991;SDS011;997;48.448;8.924;2023-02-22T05:32:02;6.30;;;5.70;;
1991;SDS011;997;48.448;8.924;2023-02-22T05:34:28;6.23;;;5.60;;
1991;SDS011;997;48.448;8.924;2023-02-22T05:36:54;5.70;;;5.10;;
1991;SDS011;997;48.448;8.924;2023-02-22T05:39:20;6.50;;;5.60;;
1991;SDS011;997;48.448;8.924;2023-02-22T05:41:46;6.33;;;5.83;;
1991;SDS011;997;48.448;8.924;2023-02-22T05:44:12;7.87;;;5.50;;
1991;SDS011;997;48.448;8.924;2023-02-22T05:46:37;7.07;;;6.30;;
1991;SDS011;997;48.448;8.924;2023-02-22T05:49:03;6.27;;;5.63;;
1991;SDS011;997;48.448;8.924;2023-02-22T05:51:29;6.30;;;5.80;;
1991;SDS011;997;48.448;8.924;2023-02-22T05:53:55;6.73;;;5.83;;
1991;SDS011;997;48.448;8.924;2023-02-22T05:56:24;7.03;;;6.10;;
1991;SDS011;997;48.448;8.924;2023-02-22T05:58:52;7.80;;;6.43;;
1991;SDS011;997;48.448;8.924;2023-02-22T06:01:17;7.40;;;6.80;;
1991;SDS011;997;48.448;8.924;2023-02-22T06:03:47;5.70;;;5.10;;
1991;SDS011;997;48.448;8.924;2023-02-22T06:06:14;6.50;;;5.90;;
1991;SDS011;997;48.448;8.924;2023-02-22T06:08:40;6.93;;;6.23;;
1991;SDS011;997;48.448;8.924;2023-02-22T06:11:06;6.30;;;5.70;;
1991;SDS011;997;48.448;8.924;2023-02-22T06:13:33;10.13;;;7.30;;
1991;SDS011;997;48.448;8.924;2023-02-22T06:16:00;8.67;;;7.87;;
1991;SDS011;997;48.448;8.924;2023-02-22T06:18:26;6.23;;;5.50;;
1991;SDS011;997;48.448;8.924;2023-02-22T06:20:54;5.70;;;5.10;;
1991;SDS011;997;48.448;8.924;2023-02-22T06:23:20;6.80;;;6.20;;
1991;SDS011;997;48.448;8.924;2023-02-22T06:25:45;6.20;;;5.60;;
1991;SDS011;997;48.448;8.924;2023-02-22T06:28:11;7.47;;;6.60;;
1991;SDS011;997;48.448;8.924;2023-02-22T06:30:36;5.87;;;5.33;;
1991;SDS011;997;48.448;8.924;2023-02-22T06:33:04;7.40;;;6.70;;
1991;SDS011;997;48.448;8.924;2023-02-22T06:35:30;7.30;;;6.60;;
1991;SDS011;997;48.448;8.924;2023-02-22T06:37:56;6.40;;;5.80;;
1991;SDS011;997;48.448;8.924;2023-02-22T06:40:21;10.13;;;6.87;;
1991;SDS011;997;48.448;8.924;2023-02-22T06:42:47;7.77;;;6.13;;
1991;SDS011;997;48.448;8.924;2023-02-22T06:45:15;7.10;;;6.40;;
1991;SDS011;997;48.448;8.924;2023-02-22T06:47:42;10.13;;;6.80;;
1991;SDS011;997;48.448;8.924;2023-02-22T06:50:16;8.10;;;6.50;;
1991;SDS011;997;48.448;8.924;2023-02-22T06:52:46;5.90;;;5.30;;
1991;SDS011;997;48.448;8.924;2023-02-22T06:55:15;6.57;;;5.97;;
1991;SDS011;997;48.448;8.924;2023-02-22T06:57:42;8.03;;;6.00;;
1991;SDS011;997;48.448;8.924;2023-02-22T07:00:08;5.33;;;4.83;;
1991;SDS011;997;48.448;8.924;2023-02-22T07:02:35;6.17;;;5.57;;
1991;SDS011;997;48.448;8.924;2023-02-22T07:05:01;5.20;;;4.80;;
1991;SDS011;997;48.448;8.924;2023-02-22T07:07:26;9.13;;;6.40;;
1991;SDS011;997;48.448;8.924;2023-02-22T07:09:54;5.63;;;5.23;;
1991;SDS011;997;48.448;8.924;2023-02-22T07:12:19;6.93;;;6.37;;
1991;SDS011;997;48.448;8.924;2023-02-22T07:14:45;7.23;;;5.90;;
1991;SDS011;997;48.448;8.924;2023-02-22T07:17:11;5.13;;;4.73;;
1991;SDS011;997;48.448;8.924;2023-02-22T07:19:37;6.30;;;5.67;;
1991;SDS011;997;48.448;8.924;2023-02-22T07:22:02;6.90;;;6.30;;
1991;SDS011;997;48.448;8.924;2023-02-22T07:24:30;6.30;;;5.70;;
1991;SDS011;997;48.448;8.924;2023-02-22T07:26:55;6.27;;;5.87;;
1991;SDS011;997;48.448;8.924;2023-02-22T07:29:21;8.20;;;5.57;;
1991;SDS011;997;48.448;8.924;2023-02-22T07:31:47;7.40;;;5.93;;
1991;SDS011;997;48.448;8.924;2023-02-22T07:34:13;8.10;;;5.90;;
1991;SDS011;997;48.448;8.924;2023-02-22T07:36:38;7.67;;;6.50;;
1991;SDS011;997;48.448;8.924;2023-02-22T07:39:04;8.47;;;6.60;;
1991;SDS011;997;48.448;8.924;2023-02-22T07:41:32;8.80;;;7.10;;
1991;SDS011;997;48.448;8.924;2023-02-22T07:43:58;8.13;;;7.33;;
1991;SDS011;997;48.448;8.924;2023-02-22T07:46:24;6.33;;;5.90;;
1991;SDS011;997;48.448;8.924;2023-02-22T07:48:50;6.40;;;5.80;;
1991;SDS011;997;48.448;8.924;2023-02-22T07:51:16;10.83;;;6.70;;
1991;SDS011;997;48.448;8.924;2023-02-22T07:53:44;6.60;;;6.00;;
1991;SDS011;997;48.448;8.924;2023-02-22T07:56:10;7.40;;;6.67;;
1991;SDS011;997;48.448;8.924;2023-02-22T07:58:36;8.07;;;6.67;;
1991;SDS011;997;48.448;8.924;2023-02-22T08:01:01;8.40;;;7.60;;
1991;SDS011;997;48.448;8.924;2023-02-22T08:03:29;7.57;;;6.80;;
1991;SDS011;997;48.448;8.924;2023-02-22T08:05:58;8.57;;;6.80;;
1991;SDS011;997;48.448;8.924;2023-02-22T08:08:24;8.77;;;6.80;;
1991;SDS011;997;48.448;8.924;2023-02-22T08:10:50;7.83;;;7.13;;
1991;SDS011;997;48.448;8.924;2023-02-22T08:13:17;7.40;;;6.70;;
1991;SDS011;997;48.448;8.924;2023-02-22T08:15:43;9.87;;;7.00;;
1991;SDS011;997;48.448;8.924;2023-02-22T08:18:12;12.87;;;9.27;;
1991;SDS011;997;48.448;8.924;2023-02-22T08:20:40;10.13;;;8.90;;
1991;SDS011;997;48.448;8.924;2023-02-22T08:23:07;8.90;;;8.07;;
1991;SDS011;997;48.448;8.924;2023-02-22T08:25:34;9.03;;;8.13;;
1991;SDS011;997;48.448;8.924;2023-02-22T08:28:04;7.77;;;7.00;;
1991;SDS011;997;48.448;8.924;2023-02-22T08:30:32;7.53;;;6.40;;
1991;SDS011;997;48.448;8.924;2023-02-22T08:32:59;8.20;;;7.20;;
1991;SDS011;997;48.448;8.924;2023-02-22T08:35:26;8.03;;;6.53;;
1991;SDS011;997;48.448;8.924;2023-02-22T08:37:54;10.60;;;7.27;;
1991;SDS011;997;48.448;8.924;2023-02-22T08:40:23;7.60;;;6.93;;
1991;SDS011;997;48.448;8.924;2023-02-22T08:42:50;7.93;;;7.13;;
1991;SDS011;997;48.448;8.924;2023-02-22T08:45:16;8.13;;;6.43;;
1991;SDS011;997;48.448;8.924;2023-02-22T08:47:42;8.87;;;6.73;;
1991;SDS011;997;48.448;8.924;2023-02-22T08:50:09;7.90;;;6.40;;
1991;SDS011;997;48.448;8.924;2023-02-22T08:52:40;6.47;;;5.80;;
1991;SDS011;997;48.448;8.924;2023-02-22T08:55:06;7.80;;;7.00;;
1991;SDS011;997;48.448;8.924;2023-02-22T08:57:32;6.40;;;5.80;;
1991;SDS011;997;48.448;8.924;2023-02-22T08:59:57;7.43;;;6.73;;
1991;SDS011;997;48.448;8.924;2023-02-22T09:02:23;8.53;;;5.53;;
1991;SDS011;997;48.448;8.924;2023-02-22T09:04:49;6.43;;;5.80;;
1991;SDS011;997;48.448;8.924;2023-02-22T09:07:15;7.00;;;6.43;;
1991;SDS011;997;48.448;8.924;2023-02-22T09:09:42;8.93;;;6.97;;
1991;SDS011;997;48.448;8.924;2023-02-22T09:12:08;7.67;;;6.90;;
1991;SDS011;997;48.448;8.924;2023-02-22T09:14:34;6.50;;;6.00;;
1991;SDS011;997;48.448;8.924;2023-02-22T09:17:00;7.33;;;5.53;;
1991;SDS011;997;48.448;8.924;2023-02-22T09:19:26;8.93;;;6.67;;
1991;SDS011;997;48.448;8.924;2023-02-22T09:21:55;8.07;;;6.57;;
1991;SDS011;997;48.448;8.924;2023-02-22T09:24:22;8.20;;;7.23;;
1991;SDS011;997;48.448;8.924;2023-02-22T09:26:48;6.63;;;6.00;;
1991;SDS011;997;48.448;8.924;2023-02-22T09:29:18;7.10;;;6.20;;
1991;SDS011;997;48.448;8.924;2023-02-22T09:31:49;9.40;;;6.10;;
1991;SDS011;997;48.448;8.924;2023-02-22T09:34:16;8.20;;;7.40;;
1991;SDS011;997;48.448;8.924;2023-02-22T09:36:44;5.50;;;5.00;;
1991;SDS011;997;48.448;8.924;2023-02-22T09:39:11;7.37;;;5.50;;
1991;SDS011;997;48.448;8.924;2023-02-22T09:44:37;6.13;;;5.53;;
1991;SDS011;997;48.448;8.924;2023-02-22T09:47:18;8.67;;;5.20;;
1991;SDS011;997;48.448;8.924;2023-02-22T09:50:06;4.47;;;4.13;;
1991;SDS011;997;48.448;8.924;2023-02-22T09:55:32;4.43;;;3.90;;
1991;SDS011;997;48.448;8.924;2023-02-22T09:58:09;5.70;;;5.20;;
1991;SDS011;997;48.448;8.924;2023-02-22T10:00:44;4.73;;;4.33;;
1991;SDS011;997;48.448;8.924;2023-02-22T10:06:02;5.97;;;4.70;;
1991;SDS011;997;48.448;8.924;2023-02-22T10:08:39;5.90;;;4.50;;
1991;SDS011;997;48.448;8.924;2023-02-22T10:11:53;4.70;;;4.30;;
1991;SDS011;997;48.448;8.924;2023-02-22T10:17:32;6.47;;;5.20;;
1991;SDS011;997;48.448;8.924;2023-02-22T10:25:42;4.87;;;4.30;;
1991;SDS011;997;48.448;8.924;2023-02-22T10:28:17;4.63;;;4.23;;
1991;SDS011;997;48.448;8.924;2023-02-22T10:36:17;4.53;;;4.13;;
1991;SDS011;997;48.448;8.924;2023-02-22T10:38:58;4.60;;;4.20;;
1991;SDS011;997;48.448;8.924;2023-02-22T10:41:32;5.00;;;4.20;;
1991;SDS011;997;48.448;8.924;2023-02-22T10:44:02;5.13;;;4.77;;
1991;SDS011;997;48.448;8.924;2023-02-22T10:46:28;6.50;;;5.40;;
1991;SDS011;997;48.448;8.924;2023-02-22T10:48:56;5.00;;;4.60;;
1991;SDS011;997;48.448;8.924;2023-02-22T10:51:26;11.30;;;4.47;;
1991;SDS011;997;48.448;8.924;2023-02-22T10:56:44;5.00;;;4.37;;
1991;SDS011;997;48.448;8.924;2023-02-22T10:59:31;5.67;;;5.17;;
1991;SDS011;997;48.448;8.924;2023-02-22T11:01:57;7.33;;;5.30;;
1991;SDS011;997;48.448;8.924;2023-02-22T11:04:23;5.77;;;5.20;;
1991;SDS011;997;48.448;8.924;2023-02-22T11:07:09;7.80;;;5.00;;
1991;SDS011;997;48.448;8.924;2023-02-22T11:10:02;6.07;;;5.47;;
1991;SDS011;997;48.448;8.924;2023-02-22T11:12:39;6.40;;;5.37;;
1991;SDS011;997;48.448;8.924;2023-02-22T11:17:40;11.03;;;5.83;;
1991;SDS011;997;48.448;8.924;2023-02-22T11:20:18;9.13;;;6.03;;
1991;SDS011;997;48.448;8.924;2023-02-22T11:22:53;6.73;;;5.63;;
1991;SDS011;997;48.448;8.924;2023-02-22T11:25:24;7.90;;;5.47;;
1991;SDS011;997;48.448;8.924;2023-02-22T11:28:09;6.23;;;5.70;;
1991;SDS011;997;48.448;8.924;2023-02-22T11:30:39;7.37;;;6.47;;
1991;SDS011;997;48.448;8.924;2023-02-22T11:35:48;7.30;;;6.20;;
1991;SDS011;997;48.448;8.924;2023-02-22T11:40:45;8.97;;;5.90;;
1991;SDS011;997;48.448;8.924;2023-02-22T11:43:29;7.80;;;5.83;;
1991;SDS011;997;48.448;8.924;2023-02-22T11:48:27;5.97;;;5.43;;
1991;SDS011;997;48.448;8.924;2023-02-22T11:56:21;6.73;;;6.03;;
1991;SDS011;997;48.448;8.924;2023-02-22T11:58:58;6.30;;;5.50;;
1991;SDS011;997;48.448;8.924;2023-02-22T12:07:23;6.40;;;5.80;;
1991;SDS011;997;48.448;8.924;2023-02-22T12:18:03;5.10;;;4.60;;
1991;SDS011;997;48.448;8.924;2023-02-22T12:20:38;5.80;;;5.30;;
1991;SDS011;997;48.448;8.924;2023-02-22T12:25:40;5.53;;;5.07;;
1991;SDS011;997;48.448;8.924;2023-02-22T12:28:22;5.80;;;4.80;;
1991;SDS011;997;48.448;8.924;2023-02-22T12:36:58;6.60;;;6.00;;
1991;SDS011;997;48.448;8.924;2023-02-22T12:39:34;6.50;;;5.90;;
1991;SDS011;997;48.448;8.924;2023-02-22T12:42:17;10.37;;;5.50;;
1991;SDS011;997;48.448;8.924;2023-02-22T12:45:23;6.90;;;6.17;;
1991;SDS011;997;48.448;8.924;2023-02-22T12:47:48;5.70;;;5.20;;
1991;SDS011;997;48.448;8.924;2023-02-22T12:50:20;6.47;;;5.40;;
1991;SDS011;997;48.448;8.924;2023-02-22T12:52:55;6.60;;;6.10;;
1991;SDS011;997;48.448;8.924;2023-02-22T12:58:26;6.60;;;6.10;;
1991;SDS011;997;48.448;8.924;2023-02-22T13:11:33;6.30;;;5.70;;
1991;SDS011;997;48.448;8.924;2023-02-22T13:14:23;6.40;;;5.30;;
1991;SDS011;997;48.448;8.924;2023-02-22T13:19:48;6.50;;;5.67;;
1991;SDS011;997;48.448;8.924;2023-02-22T13:28:00;6.87;;;6.13;;
1991;SDS011;997;48.448;8.924;2023-02-22T13:31:11;6.10;;;5.50;;
1991;SDS011;997;48.448;8.924;2023-02-22T13:36:47;6.73;;;5.80;;
1991;SDS011;997;48.448;8.924;2023-02-22T13:45:00;6.83;;;5.70;;
1991;SDS011;997;48.448;8.924;2023-02-22T13:53:06;7.13;;;6.43;;
1991;SDS011;997;48.448;8.924;2023-02-22T13:55:38;7.70;;;5.83;;
1991;SDS011;997;48.448;8.924;2023-02-22T13:58:09;11.30;;;6.37;;
1991;SDS011;997;48.448;8.924;2023-02-22T14:08:06;10.73;;;7.87;;
1991;SDS011;997;48.448;8.924;2023-02-22T14:13:09;9.47;;;8.20;;
1991;SDS011;997;48.448;8.924;2023-02-22T14:15:36;9.23;;;6.50;;
1991;SDS011;997;48.448;8.924;2023-02-22T14:18:46;8.63;;;7.43;;
1991;SDS011;997;48.448;8.924;2023-02-22T14:21:18;10.23;;;7.30;;
1991;SDS011;997;48.448;8.924;2023-02-22T14:26:30;10.87;;;8.03;;
1991;SDS011;997;48.448;8.924;2023-02-22T14:29:00;11.30;;;7.57;;
1991;SDS011;997;48.448;8.924;2023-02-22T14:31:33;7.97;;;6.73;;
1991;SDS011;997;48.448;8.924;2023-02-22T14:36:54;10.70;;;7.17;;
1991;SDS011;997;48.448;8.924;2023-02-22T14:39:30;9.67;;;6.77;;
1991;SDS011;997;48.448;8.924;2023-02-22T14:42:11;12.13;;;7.90;;
1991;SDS011;997;48.448;8.924;2023-02-22T14:44:38;8.17;;;7.00;;
1991;SDS011;997;48.448;8.924;2023-02-22T14:47:23;7.80;;;6.47;;
1991;SDS011;997;48.448;8.924;2023-02-22T14:52:47;11.37;;;6.70;;
1991;SDS011;997;48.448;8.924;2023-02-22T14:58:21;9.50;;;7.40;;
1991;SDS011;997;48.448;8.924;2023-02-22T15:00:51;14.90;;;8.07;;
1991;SDS011;997;48.448;8.924;2023-02-22T15:03:28;7.77;;;6.13;;
1991;SDS011;997;48.448;8.924;2023-02-22T15:06:22;13.57;;;9.67;;
1991;SDS011;997;48.448;8.924;2023-02-22T15:09:11;11.27;;;8.87;;
1991;SDS011;997;48.448;8.924;2023-02-22T15:11:51;9.13;;;7.77;;
1991;SDS011;997;48.448;8.924;2023-02-22T15:14:20;9.10;;;7.40;;
1991;SDS011;997;48.448;8.924;2023-02-22T15:16:51;14.30;;;8.73;;
1991;SDS011;997;48.448;8.924;2023-02-22T15:19:28;7.23;;;6.50;;
1991;SDS011;997;48.448;8.924;2023-02-22T15:21:57;9.07;;;6.17;;
1991;SDS011;997;48.448;8.924;2023-02-22T15:24:34;6.93;;;6.23;;
1991;SDS011;997;48.448;8.924;2023-02-22T15:27:05;12.53;;;7.23;;
1991;SDS011;997;48.448;8.924;2023-02-22T15:29:38;9.70;;;7.10;;
1991;SDS011;997;48.448;8.924;2023-02-22T15:32:18;10.07;;;7.40;;
1991;SDS011;997;48.448;8.924;2023-02-22T15:34:53;9.43;;;7.03;;
1991;SDS011;997;48.448;8.924;2023-02-22T15:37:24;12.43;;;6.83;;
1991;SDS011;997;48.448;8.924;2023-02-22T15:39:52;9.03;;;6.47;;
1991;SDS011;997;48.448;8.924;2023-02-22T15:42:28;11.60;;;7.00;;
1991;SDS011;997;48.448;8.924;2023-02-22T15:44:54;8.30;;;7.10;;
1991;SDS011;997;48.448;8.924;2023-02-22T15:47:21;9.43;;;6.10;;
1991;SDS011;997;48.448;8.924;2023-02-22T15:52:49;8.83;;;7.97;;
1991;SDS011;997;48.448;8.924;2023-02-22T15:57:57;8.73;;;7.10;;
1991;SDS011;997;48.448;8.924;2023-02-22T16:00:33;7.83;;;7.03;;
1991;SDS011;997;48.448;8.924;2023-02-22T16:03:01;12.50;;;7.30;;
1991;SDS011;997;48.448;8.924;2023-02-22T16:05:31;8.37;;;6.93;;
1991;SDS011;997;48.448;8.924;2023-02-22T16:08:02;15.00;;;6.67;;
1991;SDS011;997;48.448;8.924;2023-02-22T16:10:35;10.20;;;6.43;;
1991;SDS011;997;48.448;8.924;2023-02-22T16:13:08;9.47;;;8.47;;
1991;SDS011;997;48.448;8.924;2023-02-22T16:16:04;9.33;;;6.87;;
1991;SDS011;997;48.448;8.924;2023-02-22T16:18:45;8.60;;;6.53;;
1991;SDS011;997;48.448;8.924;2023-02-22T16:21:12;9.43;;;7.47;;
1991;SDS011;997;48.448;8.924;2023-02-22T16:23:46;12.33;;;11.07;;
1991;SDS011;997;48.448;8.924;2023-02-22T16:26:18;13.30;;;12.00;;
1991;SDS011;997;48.448;8.924;2023-02-22T16:28:47;16.57;;;14.90;;
1991;SDS011;997;48.448;8.924;2023-02-22T16:31:18;13.90;;;10.80;;
1991;SDS011;997;48.448;8.924;2023-02-22T16:33:46;13.50;;;11.20;;
1991;SDS011;997;48.448;8.924;2023-02-22T16:36:12;11.57;;;10.37;;
1991;SDS011;997;48.448;8.924;2023-02-22T16:38:38;10.80;;;9.43;;
1991;SDS011;997;48.448;8.924;2023-02-22T16:41:08;14.77;;;13.33;;
1991;SDS011;997;48.448;8.924;2023-02-22T16:43:34;11.07;;;9.97;;
1991;SDS011;997;48.448;8.924;2023-02-22T16:46:00;29.57;;;20.17;;
1991;SDS011;997;48.448;8.924;2023-02-22T16:48:28;36.83;;;30.70;;
1991;SDS011;997;48.448;8.924;2023-02-22T16:50:59;39.33;;;34.27;;
1991;SDS011;997;48.448;8.924;2023-02-22T16:53:30;19.80;;;17.80;;
1991;SDS011;997;48.448;8.924;2023-02-22T16:55:59;12.07;;;10.93;;
1991;SDS011;997;48.448;8.924;2023-02-22T16:58:28;14.00;;;12.70;;
1991;SDS011;997;48.448;8.924;2023-02-22T17:00:58;15.10;;;12.23;;
1991;SDS011;997;48.448;8.924;2023-02-22T17:03:24;11.93;;;10.47;;
1991;SDS011;997;48.448;8.924;2023-02-22T17:05:50;12.60;;;10.60;;
1991;SDS011;997;48.448;8.924;2023-02-22T17:08:15;12.13;;;10.97;;
1991;SDS011;997;48.448;8.924;2023-02-22T17:10:41;14.57;;;11.67;;
1991;SDS011;997;48.448;8.924;2023-02-22T17:13:07;14.63;;;12.10;;
1991;SDS011;997;48.448;8.924;2023-02-22T17:15:33;17.80;;;16.00;;
1991;SDS011;997;48.448;8.924;2023-02-22T17:18:00;18.13;;;16.20;;
1991;SDS011;997;48.448;8.924;2023-02-22T17:20:28;20.93;;;18.93;;
1991;SDS011;997;48.448;8.924;2023-02-22T17:22:59;19.93;;;17.83;;
1991;SDS011;997;48.448;8.924;2023-02-22T17:25:33;16.53;;;13.57;;
1991;SDS011;997;48.448;8.924;2023-02-22T17:28:13;14.47;;;12.97;;
1991;SDS011;997;48.448;8.924;2023-02-22T17:30:39;14.00;;;12.13;;
1991;SDS011;997;48.448;8.924;2023-02-22T17:33:06;12.13;;;10.87;;
1991;SDS011;997;48.448;8.924;2023-02-22T17:35:34;14.27;;;12.83;;
1991;SDS011;997;48.448;8.924;2023-02-22T17:38:03;15.23;;;13.57;;
1991;SDS011;997;48.448;8.924;2023-02-22T17:40:30;13.90;;;11.40;;
1991;SDS011;997;48.448;8.924;2023-02-22T17:42:57;13.43;;;12.03;;
1991;SDS011;997;48.448;8.924;2023-02-22T17:45:24;13.40;;;12.13;;
1991;SDS011;997;48.448;8.924;2023-02-22T17:47:50;14.80;;;13.30;;
1991;SDS011;997;48.448;8.924;2023-02-22T17:50:20;12.67;;;11.43;;
1991;SDS011;997;48.448;8.924;2023-02-22T17:52:47;16.23;;;13.10;;
1991;SDS011;997;48.448;8.924;2023-02-22T17:55:15;14.70;;;13.20;;
1991;SDS011;997;48.448;8.924;2023-02-22T17:57:42;13.90;;;12.60;;
1991;SDS011;997;48.448;8.924;2023-02-22T18:00:12;16.40;;;14.63;;
1991;SDS011;997;48.448;8.924;2023-02-22T18:02:47;16.50;;;14.70;;
1991;SDS011;997;48.448;8.924;2023-02-22T18:05:14;15.10;;;13.00;;
1991;SDS011;997;48.448;8.924;2023-02-22T18:07:41;17.03;;;15.27;;
1991;SDS011;997;48.448;8.924;2023-02-22T18:10:07;16.80;;;14.37;;
1991;SDS011;997;48.448;8.924;2023-02-22T18:12:36;15.67;;;12.97;;
1991;SDS011;997;48.448;8.924;2023-02-22T18:15:06;16.80;;;15.30;;
1991;SDS011;997;48.448;8.924;2023-02-22T18:17:34;15.73;;;14.20;;
1991;SDS011;997;48.448;8.924;2023-02-22T18:20:01;20.57;;;15.20;;
1991;SDS011;997;48.448;8.924;2023-02-22T18:22:35;17.23;;;15.40;;
1991;SDS011;997;48.448;8.924;2023-02-22T18:25:07;18.10;;;16.30;;
1991;SDS011;997;48.448;8.924;2023-02-22T18:27:33;18.70;;;15.20;;
1991;SDS011;997;48.448;8.924;2023-02-22T18:30:00;17.07;;;15.30;;
1991;SDS011;997;48.448;8.924;2023-02-22T18:32:25;18.13;;;15.47;;
1991;SDS011;997;48.448;8.924;2023-02-22T18:34:55;20.53;;;16.07;;
1991;SDS011;997;48.448;8.924;2023-02-22T18:37:21;20.60;;;16.60;;
1991;SDS011;997;48.448;8.924;2023-02-22T18:39:47;20.53;;;17.40;;
1991;SDS011;997;48.448;8.924;2023-02-22T18:42:13;21.20;;;16.30;;
1991;SDS011;997;48.448;8.924;2023-02-22T18:44:41;17.17;;;15.37;;
1991;SDS011;997;48.448;8.924;2023-02-22T18:47:07;18.13;;;16.20;;
1991;SDS011;997;48.448;8.924;2023-02-22T18:49:32;18.97;;;17.07;;
1991;SDS011;997;48.448;8.924;2023-02-22T18:51:58;19.83;;;17.70;;
1991;SDS011;997;48.448;8.924;2023-02-22T18:54:24;21.77;;;17.53;;
1991;SDS011;997;48.448;8.924;2023-02-22T18:56:50;19.93;;;17.17;;
1991;SDS011;997;48.448;8.924;2023-02-22T18:59:15;17.80;;;15.83;;
1991;SDS011;997;48.448;8.924;2023-02-22T19:01:41;19.40;;;17.63;;
1991;SDS011;997;48.448;8.924;2023-02-22T19:04:12;16.53;;;14.73;;
1991;SDS011;997;48.448;8.924;2023-02-22T19:06:39;20.30;;;18.10;;
1991;SDS011;997;48.448;8.924;2023-02-22T19:09:05;19.47;;;17.53;;
1991;SDS011;997;48.448;8.924;2023-02-22T19:11:33;19.83;;;17.87;;
1991;SDS011;997;48.448;8.924;2023-02-22T19:14:00;20.10;;;17.70;;
1991;SDS011;997;48.448;8.924;2023-02-22T19:16:30;22.07;;;19.13;;
1991;SDS011;997;48.448;8.924;2023-02-22T19:18:56;20.13;;;18.10;;
1991;SDS011;997;48.448;8.924;2023-02-22T19:21:23;18.90;;;17.00;;
1991;SDS011;997;48.448;8.924;2023-02-22T19:23:49;18.13;;;16.33;;
1991;SDS011;997;48.448;8.924;2023-02-22T19:26:17;25.17;;;20.30;;
1991;SDS011;997;48.448;8.924;2023-02-22T19:28:45;24.83;;;22.13;;
1991;SDS011;997;48.448;8.924;2023-02-22T19:31:21;24.53;;;21.50;;
1991;SDS011;997;48.448;8.924;2023-02-22T19:33:52;24.60;;;20.77;;
1991;SDS011;997;48.448;8.924;2023-02-22T19:36:18;20.33;;;18.13;;
1991;SDS011;997;48.448;8.924;2023-02-22T19:38:47;25.33;;;20.63;;
1991;SDS011;997;48.448;8.924;2023-02-22T19:41:14;23.63;;;21.20;;
1991;SDS011;997;48.448;8.924;2023-02-22T19:43:42;23.90;;;19.90;;
1991;SDS011;997;48.448;8.924;2023-02-22T19:46:09;23.70;;;19.83;;
1991;SDS011;997;48.448;8.924;2023-02-22T19:48:38;22.83;;;20.43;;
1991;SDS011;997;48.448;8.924;2023-02-22T19:51:06;21.50;;;18.70;;
1991;SDS011;997;48.448;8.924;2023-02-22T19:53:34;24.23;;;21.77;;
1991;SDS011;997;48.448;8.924;2023-02-22T19:56:03;23.43;;;21.00;;
1991;SDS011;997;48.448;8.924;2023-02-22T19:58:30;22.60;;;20.43;;
1991;SDS011;997;48.448;8.924;2023-02-22T20:00:56;24.70;;;22.20;;
1991;SDS011;997;48.448;8.924;2023-02-22T20:03:22;23.00;;;20.00;;
1991;SDS011;997;48.448;8.924;2023-02-22T20:05:49;27.77;;;24.97;;
1991;SDS011;997;48.448;8.924;2023-02-22T20:08:15;29.03;;;26.20;;
1991;SDS011;997;48.448;8.924;2023-02-22T20:10:41;26.50;;;23.37;;
1991;SDS011;997;48.448;8.924;2023-02-22T20:13:06;30.10;;;27.10;;
1991;SDS011;997;48.448;8.924;2023-02-22T20:15:35;25.43;;;22.93;;
1991;SDS011;997;48.448;8.924;2023-02-22T20:18:01;23.83;;;21.10;;
1991;SDS011;997;48.448;8.924;2023-02-22T20:20:27;25.10;;;22.30;;
1991;SDS011;997;48.448;8.924;2023-02-22T20:22:52;20.67;;;18.20;;
1991;SDS011;997;48.448;8.924;2023-02-22T20:25:18;20.77;;;18.77;;
1991;SDS011;997;48.448;8.924;2023-02-22T20:27:44;18.07;;;16.27;;
1991;SDS011;997;48.448;8.924;2023-02-22T20:30:10;20.00;;;17.90;;
1991;SDS011;997;48.448;8.924;2023-02-22T20:32:37;20.83;;;18.67;;
1991;SDS011;997;48.448;8.924;2023-02-22T20:35:03;21.00;;;17.43;;
1991;SDS011;997;48.448;8.924;2023-02-22T20:37:30;25.60;;;17.80;;
1991;SDS011;997;48.448;8.924;2023-02-22T20:39:57;18.67;;;16.37;;
1991;SDS011;997;48.448;8.924;2023-02-22T20:42:24;18.90;;;17.03;;
1991;SDS011;997;48.448;8.924;2023-02-22T20:44:50;19.73;;;17.53;;
1991;SDS011;997;48.448;8.924;2023-02-22T20:47:16;19.77;;;17.67;;
1991;SDS011;997;48.448;8.924;2023-02-22T20:49:41;17.77;;;15.90;;
1991;SDS011;997;48.448;8.924;2023-02-22T20:52:07;19.90;;;16.17;;
1991;SDS011;997;48.448;8.924;2023-02-22T20:54:32;23.40;;;17.10;;
1991;SDS011;997;48.448;8.924;2023-02-22T20:57:00;18.70;;;16.80;;
1991;SDS011;997;48.448;8.924;2023-02-22T20:59:26;22.00;;;16.30;;
1991;SDS011;997;48.448;8.924;2023-02-22T21:01:53;17.57;;;15.87;;
1991;SDS011;997;48.448;8.924;2023-02-22T21:04:19;19.73;;;17.47;;
1991;SDS011;997;48.448;8.924;2023-02-22T21:06:48;19.83;;;16.63;;
1991;SDS011;997;48.448;8.924;2023-02-22T21:09:16;19.00;;;16.97;;
1991;SDS011;997;48.448;8.924;2023-02-22T21:11:43;19.37;;;16.50;;
1991;SDS011;997;48.448;8.924;2023-02-22T21:14:10;18.30;;;15.17;;
1991;SDS011;997;48.448;8.924;2023-02-22T21:16:40;16.03;;;14.33;;
1991;SDS011;997;48.448;8.924;2023-02-22T21:19:06;20.07;;;16.40;;
1991;SDS011;997;48.448;8.924;2023-02-22T21:21:33;18.60;;;16.90;;
1991;SDS011;997;48.448;8.924;2023-02-22T21:23:59;18.30;;;16.27;;
1991;SDS011;997;48.448;8.924;2023-02-22T21:26:25;18.13;;;16.23;;
1991;SDS011;997;48.448;8.924;2023-02-22T21:28:53;19.30;;;15.20;;
1991;SDS011;997;48.448;8.924;2023-02-22T21:31:22;17.80;;;15.43;;
1991;SDS011;997;48.448;8.924;2023-02-22T21:33:52;27.70;;;22.20;;
1991;SDS011;997;48.448;8.924;2023-02-22T21:36:19;23.97;;;21.40;;
1991;SDS011;997;48.448;8.924;2023-02-22T21:38:50;20.27;;;16.40;;
1991;SDS011;997;48.448;8.924;2023-02-22T21:41:32;16.53;;;14.70;;